Time;durP1;ratioP1;P1;durP2;ratioP2;P2;SDS_P1;SDS_P2;PMS_P1;PMS_P2;Temp;Humidity;BMP_temperature;BMP_pressure;BME280_temperature;BME280_humidity;BME280_pressure;Samples;Min_cycle;Max_cycle;Signal;HPM_P1;HPM_P2
2021/09/04 00:00:04;;;;;;;;;16.25;16.25;;;;;24.30;51.08;100949.97;5079400;27;45220;-53
2021/09/04 00:02:29;;;;;;;;;21.75;19.00;;;;;24.29;51.21;100947.34;5080311;27;45454;-53
2021/09/04 00:04:55;;;;;;;;;20.50;20.00;;;;;24.28;51.32;100945.63;5079219;27;48199;-53
2021/09/04 00:07:20;;;;;;;;;21.25;21.25;;;;;24.26;51.21;100950.28;5079563;27;45405;-55
2021/09/04 00:09:46;;;;;;;;;21.50;21.00;;;;;24.23;51.43;100945.09;5079396;27;45443;-53
2021/09/04 00:12:11;;;;;;;;;20.75;18.50;;;;;24.22;51.23;100948.78;5079852;27;45515;-53
2021/09/04 00:14:37;;;;;;;;;17.25;17.25;;;;;24.20;51.31;100945.31;5079042;27;47412;-55
2021/09/04 00:17:03;;;;;;;;;19.25;19.25;;;;;24.18;51.63;100948.16;5060827;28;45440;-54
2021/09/04 00:19:29;;;;;;;;;17.00;17.00;;;;;24.17;51.37;100951.00;5074870;28;45460;-53
2021/09/04 00:21:54;;;;;;;;;21.50;21.50;;;;;24.15;51.43;100945.69;5061179;28;45900;-55
2021/09/04 00:24:19;;;;;;;;;19.00;17.25;;;;;24.16;51.55;100960.09;5078773;28;47311;-52
2021/09/04 00:26:45;;;;;;;;;17.25;17.25;;;;;24.15;51.60;100952.94;5079138;28;45311;-53
2021/09/04 00:29:10;;;;;;;;;20.00;19.25;;;;;24.13;51.60;100950.31;5084703;27;45346;-54
2021/09/04 00:31:36;;;;;;;;;18.00;17.75;;;;;24.11;51.60;100946.00;5083162;27;45582;-54
2021/09/04 00:34:01;;;;;;;;;19.25;18.00;;;;;24.07;51.61;100948.94;5078445;28;47394;-53
2021/09/04 00:36:27;;;;;;;;;17.00;17.00;;;;;24.06;51.61;100951.78;5060732;28;45634;-54
2021/09/04 00:38:52;;;;;;;;;20.00;18.00;;;;;24.02;52.06;100948.44;5078152;28;45346;-53
2021/09/04 00:41:22;;;;;;;;;18.25;18.25;;;;;23.99;51.84;100940.50;5078902;28;45247;-52
2021/09/04 00:43:49;;;;;;;;;18.00;18.00;;;;;23.99;51.83;100939.66;5060305;28;48518;-53
2021/09/04 00:46:15;;;;;;;;;19.00;17.00;;;;;23.97;51.96;100933.47;5078370;28;45517;-54
2021/09/04 00:48:40;;;;;;;;;18.50;18.50;;;;;23.94;51.93;100933.72;5077933;28;45758;-54
2021/09/04 00:51:06;;;;;;;;;18.25;17.75;;;;;23.94;51.94;100931.00;5079026;28;45677;-54
2021/09/04 00:53:31;;;;;;;;;17.75;17.75;;;;;23.91;52.08;100931.25;5078150;28;45675;-54
2021/09/04 00:55:58;;;;;;;;;21.00;20.00;;;;;23.89;52.03;100934.06;5088140;27;45645;-53
2021/09/04 00:58:24;;;;;;;;;24.00;23.00;;;;;23.87;52.17;100927.88;5078950;27;45510;-53
2021/09/04 01:00:52;;;;;;;;;16.25;16.00;;;;;23.86;52.16;100936.13;5079292;27;45805;-54
2021/09/04 01:03:18;;;;;;;;;16.25;16.25;;;;;23.83;52.02;100933.63;5080129;27;48884;-54
2021/09/04 01:05:48;;;;;;;;;15.25;15.25;;;;;23.80;52.09;100929.31;5078720;28;45418;-55
2021/09/04 01:08:13;;;;;;;;;17.25;17.25;;;;;23.77;52.51;100930.41;5060399;28;45411;-54
2021/09/04 01:10:39;;;;;;;;;19.25;17.50;;;;;23.76;52.34;100928.69;5080527;28;45317;-55
2021/09/04 01:13:05;;;;;;;;;18.50;18.50;;;;;23.75;52.32;100932.34;5077937;28;48217;-55
2021/09/04 01:15:30;;;;;;;;;18.25;18.00;;;;;23.73;52.41;100925.31;5077196;28;45775;-57
2021/09/04 01:18:00;;;;;;;;;21.75;20.50;;;;;23.71;52.45;100924.56;5077572;28;45327;-53
2021/09/04 01:20:26;;;;;;;;;17.00;17.00;;;;;23.69;52.50;100926.53;5060663;28;45584;-54
2021/09/04 01:22:52;;;;;;;;;19.00;15.25;;;;;23.68;52.65;100922.09;5077781;28;48162;-55
2021/09/04 01:25:24;;;;;;;;;21.50;21.00;;;;;23.68;52.65;100919.38;5079872;28;45616;-54
2021/09/04 01:27:50;;;;;;;;;18.50;18.25;;;;;23.66;52.73;100924.03;5078497;28;45490;-53
2021/09/04 01:30:16;;;;;;;;;20.25;18.50;;;;;23.63;52.74;100917.00;5060651;28;45461;-55
2021/09/04 01:32:42;;;;;;;;;16.50;16.25;;;;;23.61;52.61;100918.06;5059450;28;45531;-53
2021/09/04 01:35:11;;;;;;;;;17.25;16.00;;;;;23.61;52.80;100915.38;5078445;28;45342;-54
2021/09/04 01:37:37;;;;;;;;;16.00;16.00;;;;;23.60;52.73;100917.22;5078127;28;45401;-55
2021/09/04 01:40:10;;;;;;;;;19.25;19.25;;;;;23.60;52.74;100916.34;5068568;28;45325;-54
2021/09/04 01:42:35;;;;;;;;;16.50;15.50;;;;;23.59;52.50;100920.91;5078036;28;46488;-53
2021/09/04 01:45:01;;;;;;;;;15.00;15.00;;;;;23.58;52.81;100919.16;5059540;28;45565;-55
2021/09/04 01:47:26;;;;;;;;;18.75;18.75;;;;;23.58;52.70;100915.59;5077382;27;45369;-52
2021/09/04 01:49:56;;;;;;;;;16.00;16.00;;;;;23.57;52.90;100925.53;5060409;28;45391;-52
2021/09/04 01:52:23;;;;;;;;;18.00;16.75;;;;;23.56;52.88;100922.94;5077884;28;47562;-52
2021/09/04 01:54:49;;;;;;;;;21.00;21.00;;;;;23.54;53.01;100924.91;5077861;27;46591;-54
2021/09/04 01:57:15;;;;;;;;;18.50;18.50;;;;;23.53;52.66;100924.03;5078942;27;45561;-53
2021/09/04 01:59:40;;;;;;;;;18.75;18.75;;;;;23.51;52.83;100917.88;5078226;28;45459;-54
2021/09/04 02:02:07;;;;;;;;;19.75;19.75;;;;;23.49;52.82;100919.78;5067835;28;46359;-53
2021/09/04 02:04:33;;;;;;;;;19.25;18.50;;;;;23.49;52.85;100917.09;5081471;28;45823;-54
2021/09/04 02:06:59;;;;;;;;;17.25;17.25;;;;;23.47;52.71;100914.50;5080880;28;45416;-53
2021/09/04 02:09:25;;;;;;;;;17.25;16.00;;;;;23.46;52.95;100915.47;5063144;28;45597;-54
2021/09/04 02:11:50;;;;;;;;;15.50;14.50;;;;;23.45;53.26;100911.03;5062585;28;47322;-54
2021/09/04 02:14:15;;;;;;;;;21.25;18.75;;;;;23.44;52.92;100909.31;5080889;27;45283;-54
2021/09/04 02:16:41;;;;;;;;;18.75;17.75;;;;;23.44;53.18;100911.16;5081210;28;45672;-54
2021/09/04 02:19:07;;;;;;;;;18.00;18.00;;;;;23.42;53.09;100907.69;5078625;27;45696;-53
2021/09/04 02:21:32;;;;;;;;;13.50;12.25;;;;;23.42;53.24;100913.09;5080781;28;47168;-54
2021/09/04 02:23:58;;;;;;;;;18.25;17.25;;;;;23.40;52.96;100904.22;5081079;28;45244;-53
2021/09/04 02:26:23;;;;;;;;;18.25;17.50;;;;;23.40;52.89;100912.34;5081075;28;45458;-52
2021/09/04 02:28:49;;;;;;;;;19.25;18.00;;;;;23.37;53.04;100910.72;5081226;27;45817;-53
2021/09/04 02:31:16;;;;;;;;;20.25;20.25;;;;;23.32;53.13;100906.63;5080545;27;46292;-53
2021/09/04 02:33:41;;;;;;;;;18.00;18.00;;;;;23.29;53.26;100905.00;5081328;28;46054;-53
2021/09/04 02:36:07;;;;;;;;;19.50;17.50;;;;;23.26;53.07;100898.94;5080837;27;45527;-53
2021/09/04 02:38:32;;;;;;;;;16.75;16.75;;;;;23.24;53.47;100903.59;5080896;28;45421;-54
2021/09/04 02:40:58;;;;;;;;;18.25;15.75;;;;;23.25;53.31;100899.91;5079945;28;47101;-54
2021/09/04 02:43:23;;;;;;;;;19.25;18.50;;;;;23.24;53.08;100909.84;5080800;28;45675;-52
2021/09/04 02:45:49;;;;;;;;;17.00;17.00;;;;;23.25;53.25;100905.31;5062241;28;45647;-53
2021/09/04 02:48:14;;;;;;;;;20.75;20.00;;;;;23.24;53.24;100904.44;5081156;27;45531;-52
2021/09/04 02:50:40;;;;;;;;;22.75;17.75;;;;;23.25;53.59;100916.13;5080423;27;48190;-53
2021/09/04 02:53:06;;;;;;;;;20.75;18.00;;;;;23.26;53.12;100909.78;5080533;28;45502;-53
2021/09/04 02:55:33;;;;;;;;;18.25;18.25;;;;;23.25;53.08;100911.63;5082382;27;45290;-53
2021/09/04 02:57:59;;;;;;;;;20.00;19.00;;;;;23.26;53.01;100913.34;5080726;28;45488;-54
2021/09/04 03:00:24;;;;;;;;;19.75;18.75;;;;;23.25;53.09;100908.03;5080036;28;47244;-53
2021/09/04 03:02:50;;;;;;;;;19.25;18.00;;;;;23.22;53.09;100913.66;5068685;28;45382;-55
2021/09/04 03:05:17;;;;;;;;;14.25;14.25;;;;;23.21;53.28;100910.09;5080168;28;45603;-53
2021/09/04 03:07:43;;;;;;;;;18.50;18.50;;;;;23.22;53.19;100908.25;5080218;27;45878;-53
2021/09/04 03:10:09;;;;;;;;;18.75;18.75;;;;;23.23;53.12;100904.56;5061104;28;47236;-53
2021/09/04 03:12:35;;;;;;;;;19.75;19.75;;;;;23.24;53.07;100915.28;5061604;28;45668;-53
2021/09/04 03:15:00;;;;;;;;;17.75;17.75;;;;;23.25;53.28;100911.63;5061493;28;45551;-53
2021/09/04 03:17:26;;;;;;;;;15.00;15.00;;;;;23.25;53.35;100906.22;5062426;28;45521;-54
2021/09/04 03:19:51;;;;;;;;;19.75;17.75;;;;;23.26;53.29;100910.66;5079997;27;45980;-54
2021/09/04 03:22:17;;;;;;;;;17.50;17.50;;;;;23.26;53.17;100902.53;5080113;28;45346;-54
2021/09/04 03:24:42;;;;;;;;;17.50;17.00;;;;;23.25;53.30;100898.09;5079837;28;45295;-53
2021/09/04 03:27:07;;;;;;;;;17.25;17.00;;;;;23.24;52.99;100907.16;5080841;27;45352;-53
2021/09/04 03:29:33;;;;;;;;;15.75;15.75;;;;;23.24;53.21;100907.16;5079752;28;47414;-53
2021/09/04 03:31:58;;;;;;;;;17.50;17.50;;;;;23.26;53.10;100904.38;5079763;28;45724;-52
2021/09/04 03:34:24;;;;;;;;;17.25;17.25;;;;;23.25;52.95;100908.91;5079745;27;45374;-55
2021/09/04 03:36:50;;;;;;;;;16.25;16.25;;;;;23.26;52.70;100907.06;5080046;28;45326;-51
2021/09/04 03:39:15;;;;;;;;;19.25;18.25;;;;;23.26;53.05;100913.34;5079286;28;47541;-53
2021/09/04 03:41:41;;;;;;;;;20.25;18.25;;;;;23.25;52.70;100914.34;5079706;28;45307;-53
2021/09/04 03:44:06;;;;;;;;;19.25;18.00;;;;;23.24;52.72;100907.16;5080178;28;45270;-52
2021/09/04 03:46:32;;;;;;;;;15.25;15.25;;;;;23.25;52.87;100916.13;5080465;28;45437;-53
2021/09/04 03:49:00;;;;;;;;;18.75;16.50;;;;;23.26;52.93;100915.19;5080039;28;47237;-53
2021/09/04 03:51:26;;;;;;;;;22.00;20.00;;;;;23.25;53.04;100905.31;5062559;28;45353;-59
2021/09/04 03:53:52;;;;;;;;;17.50;17.50;;;;;23.25;53.07;100908.91;5079657;28;45364;-50
2021/09/04 03:56:18;;;;;;;;;19.75;18.75;;;;;23.25;52.99;100908.03;5062779;28;45395;-48
2021/09/04 03:58:43;;;;;;;;;18.00;18.00;;;;;23.25;52.71;100902.59;5079980;28;47090;-52
2021/09/04 04:01:09;;;;;;;;;20.50;18.75;;;;;23.25;52.75;100899.91;5082418;27;45476;-51
2021/09/04 04:03:35;;;;;;;;;19.25;18.50;;;;;23.24;52.85;100892.75;5079051;28;45755;-50
2021/09/04 04:06:00;;;;;;;;;20.50;20.00;;;;;23.24;52.74;100893.63;5079250;28;45297;-52
2021/09/04 04:08:25;;;;;;;;;19.00;17.00;;;;;23.23;52.71;100896.44;5060524;28;46764;-49
2021/09/04 04:10:51;;;;;;;;;20.75;20.00;;;;;23.20;52.95;100890.28;5078499;27;46431;-53
2021/09/04 04:13:16;;;;;;;;;18.00;18.00;;;;;23.20;52.64;100892.97;5079371;28;45749;-53
2021/09/04 04:15:42;;;;;;;;;25.00;23.00;;;;;23.19;53.10;100891.25;5079475;28;45567;-49
2021/09/04 04:18:08;;;;;;;;;19.75;19.50;;;;;23.20;52.91;100892.13;5061558;27;47302;-52
2021/09/04 04:20:33;;;;;;;;;20.25;20.25;;;;;23.18;52.88;100885.94;5074440;28;45980;-50
2021/09/04 04:22:59;;;;;;;;;20.50;20.25;;;;;23.18;53.11;100885.94;5055836;28;45722;-51
2021/09/04 04:25:24;;;;;;;;;18.25;16.75;;;;;23.17;53.30;100897.75;5079955;28;45596;-51
2021/09/04 04:27:50;;;;;;;;;18.25;17.25;;;;;23.17;52.71;100892.34;5079444;28;46449;-53
2021/09/04 04:30:15;;;;;;;;;13.25;13.25;;;;;23.17;52.97;100890.50;5079627;27;45678;-52
2021/09/04 04:32:41;;;;;;;;;18.50;14.75;;;;;23.19;52.96;100890.38;5079543;27;45505;-52
2021/09/04 04:35:07;;;;;;;;;18.25;18.25;;;;;23.19;52.95;100891.25;5081350;27;45407;-52
2021/09/04 04:37:32;;;;;;;;;19.00;18.00;;;;;23.17;52.97;100893.22;5080191;28;47272;-52
2021/09/04 04:39:58;;;;;;;;;17.75;17.75;;;;;23.19;52.52;100890.38;5061483;28;45675;-52
2021/09/04 04:42:23;;;;;;;;;18.75;17.25;;;;;23.19;52.96;100887.69;5080808;28;45484;-57
2021/09/04 04:44:49;;;;;;;;;20.50;18.50;;;;;23.18;53.13;100888.66;5080631;27;45373;-53
2021/09/04 04:47:15;;;;;;;;;18.75;16.50;;;;;23.18;53.23;100889.53;5081746;28;47115;-50
2021/09/04 04:49:40;;;;;;;;;18.50;16.25;;;;;23.18;52.90;100889.53;5061833;28;45909;-55
2021/09/04 04:52:06;;;;;;;;;16.75;16.75;;;;;23.18;53.42;100891.38;5060843;28;45494;-54
2021/09/04 04:54:33;;;;;;;;;17.25;17.25;;;;;23.18;53.19;100891.38;5062568;28;45494;-52
2021/09/04 04:56:59;;;;;;;;;23.50;21.75;;;;;23.20;53.22;100894.81;5081006;27;47463;-54
2021/09/04 04:59:24;;;;;;;;;20.75;20.50;;;;;23.20;53.13;100892.97;5080122;28;45286;-53
2021/09/04 05:01:50;;;;;;;;;19.00;17.75;;;;;23.21;52.89;100896.56;5075892;28;45501;-53
2021/09/04 05:04:15;;;;;;;;;19.75;19.75;;;;;23.22;53.29;100889.28;5077937;28;45695;-53
2021/09/04 05:06:41;;;;;;;;;16.75;16.75;;;;;23.21;53.05;100893.84;5078624;28;47215;-50
2021/09/04 05:09:06;;;;;;;;;17.75;16.75;;;;;23.22;52.92;100889.28;5077728;27;45380;-50
2021/09/04 05:11:32;;;;;;;;;18.25;17.00;;;;;23.19;52.88;100902.09;5078381;28;46492;-52
2021/09/04 05:13:57;;;;;;;;;20.00;19.00;;;;;23.18;53.19;100904.91;5081961;27;45379;-50
2021/09/04 05:16:23;;;;;;;;;20.00;20.00;;;;;23.18;53.66;100897.63;5078178;28;48140;-53
2021/09/04 05:18:48;;;;;;;;;24.25;20.00;;;;;23.20;53.33;100903.81;5059071;28;45296;-53
2021/09/04 05:21:14;;;;;;;;;20.00;19.00;;;;;23.19;53.27;100893.97;5078534;27;45410;-53
2021/09/04 05:23:39;;;;;;;;;20.00;19.00;;;;;23.22;53.39;100902.84;5078004;27;45300;-53
2021/09/04 05:26:05;;;;;;;;;23.25;20.00;;;;;23.23;53.34;100902.72;5060170;28;46178;-52
2021/09/04 05:28:30;;;;;;;;;24.25;24.25;;;;;23.24;53.33;100903.59;5078174;28;45207;-54
2021/09/04 05:30:56;;;;;;;;;19.00;19.00;;;;;23.25;53.31;100910.72;5059979;28;45497;-51
2021/09/04 05:33:22;;;;;;;;;20.75;19.25;;;;;23.26;53.38;100907.06;5077859;28;45427;-52
2021/09/04 05:35:47;;;;;;;;;20.75;20.25;;;;;23.28;53.41;100907.81;5079078;28;46835;-50
2021/09/04 05:38:13;;;;;;;;;21.00;21.00;;;;;23.29;53.11;100910.41;5080961;28;45732;-50
2021/09/04 05:40:38;;;;;;;;;22.00;20.75;;;;;23.29;53.26;100918.53;5082701;27;45436;-54
2021/09/04 05:43:03;;;;;;;;;18.75;18.75;;;;;23.30;53.31;100914.00;5062615;28;45448;-52
2021/09/04 05:45:29;;;;;;;;;19.75;19.75;;;;;23.31;53.20;100921.13;5081287;28;46765;-53
2021/09/04 05:47:54;;;;;;;;;22.75;21.00;;;;;23.32;53.29;100917.44;5063016;28;45797;-52
2021/09/04 05:50:20;;;;;;;;;20.50;19.00;;;;;23.33;53.23;100916.47;5073682;28;45699;-52
2021/09/04 05:52:45;;;;;;;;;20.25;20.25;;;;;23.33;53.32;100920.03;5079124;28;45486;-53
2021/09/04 05:55:11;;;;;;;;;22.00;21.50;;;;;23.35;53.43;100919.94;5082813;27;47114;-54
2021/09/04 05:57:36;;;;;;;;;23.75;22.50;;;;;23.36;53.46;100917.09;5063021;28;45441;-54
2021/09/04 06:00:03;;;;;;;;;21.25;21.00;;;;;23.37;53.30;100907.13;5081492;28;45468;-50
2021/09/04 06:02:28;;;;;;;;;23.50;21.25;;;;;23.38;53.47;100907.06;5081185;27;45563;-51
2021/09/04 06:04:54;;;;;;;;;24.25;22.75;;;;;23.40;53.16;100915.06;5062758;28;47365;-54
2021/09/04 06:07:19;;;;;;;;;20.50;18.50;;;;;23.37;53.34;100918.84;5062921;28;45704;-52
2021/09/04 06:09:45;;;;;;;;;20.75;20.75;;;;;23.38;53.42;100927.84;5072221;28;45439;-54
2021/09/04 06:12:10;;;;;;;;;19.00;18.00;;;;;23.38;53.33;100926.00;5080719;27;45385;-55
2021/09/04 06:14:36;;;;;;;;;23.00;22.75;;;;;23.40;53.39;100931.31;5080401;28;47163;-52
2021/09/04 06:17:01;;;;;;;;;21.50;21.50;;;;;23.40;52.97;100936.72;5062111;28;45848;-50
2021/09/04 06:19:27;;;;;;;;;24.50;24.50;;;;;23.37;53.64;100932.38;5062841;27;45543;-54
2021/09/04 06:21:53;;;;;;;;;20.25;20.25;;;;;23.36;53.33;100932.50;5061571;28;45401;-52
2021/09/04 06:24:18;;;;;;;;;22.50;21.25;;;;;23.35;53.56;100937.03;5079966;27;47797;-54
2021/09/04 06:26:43;;;;;;;;;22.75;22.00;;;;;23.32;53.67;100939.97;5089227;27;45971;-54
2021/09/04 06:29:09;;;;;;;;;23.00;20.50;;;;;23.31;53.59;100943.66;5061924;28;45428;-53
2021/09/04 06:31:35;;;;;;;;;24.75;22.00;;;;;23.33;53.74;100941.72;5085304;27;45494;-54
2021/09/04 06:34:00;;;;;;;;;23.25;19.75;;;;;23.35;54.03;100939.75;5080524;28;46773;-53
2021/09/04 06:36:26;;;;;;;;;24.75;22.00;;;;;23.37;54.06;100945.91;5064474;27;45430;-54
2021/09/04 06:38:51;;;;;;;;;24.50;23.75;;;;;23.39;53.67;100943.13;5080910;27;45510;-53
2021/09/04 06:41:17;;;;;;;;;23.25;23.00;;;;;23.40;54.08;100944.88;5080097;28;45894;-54
2021/09/04 06:43:42;;;;;;;;;24.75;23.75;;;;;23.41;54.10;100950.16;5081135;27;48290;-54
2021/09/04 06:46:07;;;;;;;;;29.75;26.75;;;;;23.41;54.10;100955.59;5079113;28;45275;-53
2021/09/04 06:48:33;;;;;;;;;25.75;24.50;;;;;23.44;53.67;100951.78;5080572;28;45318;-53
2021/09/04 06:50:58;;;;;;;;;26.00;26.00;;;;;23.47;53.87;100951.56;5080239;28;45379;-54
2021/09/04 06:53:24;;;;;;;;;24.00;23.25;;;;;23.48;53.91;100958.69;5079979;27;48280;-53
2021/09/04 06:55:49;;;;;;;;;28.25;27.00;;;;;23.50;53.84;100951.31;5089898;27;45797;-53
2021/09/04 06:58:15;;;;;;;;;27.25;27.00;;;;;23.51;53.91;100947.66;5080176;27;45428;-54
2021/09/04 07:00:40;;;;;;;;;26.75;26.50;;;;;23.54;53.79;100950.16;5077581;27;46017;-54
2021/09/04 07:03:06;;;;;;;;;26.25;26.00;;;;;23.57;53.78;100943.63;5079219;28;46255;-54
2021/09/04 07:05:31;;;;;;;;;30.00;29.50;;;;;23.57;53.78;100938.22;5080250;27;45615;-53
2021/09/04 07:07:57;;;;;;;;;23.00;23.00;;;;;23.58;53.79;100938.13;5079102;27;45400;-52
2021/09/04 07:10:22;;;;;;;;;43.00;35.50;;;;;23.61;53.73;100939.75;5058512;28;45628;-53
2021/09/04 07:12:48;;;;;;;;;32.25;29.75;;;;;23.62;53.97;100938.78;5059999;28;47377;-52
2021/09/04 07:15:13;;;;;;;;;27.00;26.50;;;;;23.64;53.99;100939.56;5079547;27;45835;-53
2021/09/04 07:17:39;;;;;;;;;27.25;26.00;;;;;23.67;54.27;100940.19;5070178;28;45594;-54
2021/09/04 07:20:05;;;;;;;;;29.50;27.50;;;;;23.68;54.23;100932.91;5079685;27;45342;-55
2021/09/04 07:22:31;;;;;;;;;28.50;28.50;;;;;23.71;54.32;100929.97;5079335;27;48710;-56
2021/09/04 07:24:56;;;;;;;;;28.25;28.00;;;;;23.74;54.52;100935.16;5061036;28;45447;-53
2021/09/04 07:27:22;;;;;;;;;27.25;25.75;;;;;23.76;54.54;100938.66;5079292;27;45492;-54
2021/09/04 07:29:47;;;;;;;;;34.25;30.50;;;;;23.77;54.94;100938.53;5080030;27;45293;-52
2021/09/04 07:32:12;;;;;;;;;28.75;28.75;;;;;23.78;55.62;100940.28;5078749;27;47640;-52
2021/09/04 07:34:38;;;;;;;;;29.75;29.25;;;;;23.75;55.36;100943.19;5043878;28;45852;-52
2021/09/04 07:37:03;;;;;;;;;29.75;29.25;;;;;23.74;56.05;100946.00;5078781;27;45252;-54
2021/09/04 07:39:29;;;;;;;;;31.25;30.00;;;;;23.71;56.22;100949.81;5061635;28;45359;-53
2021/09/04 07:41:54;;;;;;;;;31.25;29.50;;;;;23.71;56.11;100940.81;5074044;27;46153;-53
2021/09/04 07:44:20;;;;;;;;;29.50;29.50;;;;;23.72;56.02;100943.41;5079569;27;45372;-53
2021/09/04 07:46:45;;;;;;;;;32.50;30.75;;;;;23.74;56.44;100943.28;5079005;27;45413;-54
2021/09/04 07:49:11;;;;;;;;;33.25;29.75;;;;;23.79;56.12;100949.25;5079836;27;45519;-53
2021/09/04 07:51:36;;;;;;;;;29.75;29.50;;;;;23.85;56.07;100946.09;5079673;27;47161;-54
2021/09/04 07:54:03;;;;;;;;;34.00;31.75;;;;;23.89;56.11;100953.03;5078615;28;45416;-54
2021/09/04 07:56:29;;;;;;;;;31.25;29.75;;;;;23.91;56.12;100959.22;5090702;27;45408;-55
2021/09/04 07:58:54;;;;;;;;;34.25;30.00;;;;;23.92;55.55;100960.94;5078281;27;45493;-55
2021/09/04 08:01:19;;;;;;;;;35.00;32.25;;;;;23.88;55.44;100951.28;5078581;28;48194;-55
2021/09/04 08:03:45;;;;;;;;;39.00;34.00;;;;;23.85;55.42;100953.34;5059732;27;46070;-56
2021/09/04 08:06:10;;;;;;;;;33.00;30.25;;;;;23.82;55.80;100951.75;5060844;28;45357;-54
2021/09/04 08:08:37;;;;;;;;;34.50;31.00;;;;;23.83;56.10;100948.06;5080256;27;45308;-55
2021/09/04 08:11:02;;;;;;;;;32.50;30.50;;;;;23.83;56.16;100952.59;5078223;28;47509;-54
2021/09/04 08:13:28;;;;;;;;;33.25;30.25;;;;;23.84;56.19;100957.06;5078010;27;45547;-56
2021/09/04 08:15:53;;;;;;;;;34.00;32.75;;;;;23.83;56.57;100956.19;5060746;28;45412;-53
2021/09/04 08:18:19;;;;;;;;;39.00;35.25;;;;;23.82;56.75;100951.75;5060004;28;45459;-53
2021/09/04 08:20:45;;;;;;;;;35.75;33.25;;;;;23.84;56.46;100960.63;5078643;28;47064;-54
2021/09/04 08:23:11;;;;;;;;;37.50;34.00;;;;;23.85;56.68;100953.34;5071193;28;46059;-53
2021/09/04 08:25:37;;;;;;;;;38.00;33.50;;;;;23.87;56.97;100957.69;5074532;27;45307;-53
2021/09/04 08:28:08;;;;;;;;;29.75;29.50;;;;;23.90;56.72;100962.03;5073346;27;45496;-53
2021/09/04 08:30:37;;;;;;;;;37.00;32.50;;;;;23.92;56.77;100949.22;5078334;27;48734;-54
2021/09/04 08:33:03;;;;;;;;;34.50;32.25;;;;;23.95;56.80;100963.41;5071319;27;45582;-50
2021/09/04 08:35:29;;;;;;;;;39.25;34.25;;;;;23.99;56.92;100959.50;5079816;27;45445;-54
2021/09/04 08:37:55;;;;;;;;;33.50;32.00;;;;;24.03;57.06;100968.28;5058931;28;45437;-50
2021/09/04 08:40:22;;;;;;;;;34.75;33.25;;;;;24.06;57.18;100977.06;5075011;27;47706;-54
2021/09/04 08:42:48;;;;;;;;;33.75;31.50;;;;;24.12;57.52;100977.56;5077429;27;46063;-54
2021/09/04 08:45:14;;;;;;;;;31.50;30.25;;;;;24.15;57.30;100971.94;5077491;28;45385;-51
2021/09/04 08:47:40;;;;;;;;;30.25;27.75;;;;;24.18;57.36;100977.97;5078069;28;45609;-53
2021/09/04 08:50:06;;;;;;;;;33.00;31.00;;;;;24.21;57.34;100979.59;5059066;28;47884;-54
2021/09/04 08:52:32;;;;;;;;;32.00;28.75;;;;;24.26;57.16;100980.09;5079022;27;46450;-56
2021/09/04 08:54:58;;;;;;;;;31.75;29.50;;;;;24.30;57.08;100984.38;5079217;27;45437;-52
2021/09/04 08:57:24;;;;;;;;;30.75;28.75;;;;;24.33;57.03;100990.44;5083893;27;45624;-54
2021/09/04 08:59:50;;;;;;;;;32.00;31.25;;;;;24.37;56.92;100991.06;5078219;28;47080;-55
2021/09/04 09:02:17;;;;;;;;;34.00;31.25;;;;;24.40;56.57;100982.72;5077566;27;45388;-56
2021/09/04 09:04:57;;;;;;;;;31.25;30.25;;;;;24.42;56.70;100988.88;5077793;28;45295;-55
2021/09/04 09:07:41;;;;;;;;;33.75;30.00;;;;;24.45;56.69;100994.06;5043420;28;45394;-54
2021/09/04 09:10:23;;;;;;;;;29.75;27.50;;;;;24.46;56.46;100990.38;5055465;28;45478;-54
2021/09/04 09:12:50;;;;;;;;;32.75;28.25;;;;;24.50;56.43;100993.72;5063921;28;45876;-54
2021/09/04 09:15:27;;;;;;;;;28.25;28.25;;;;;24.52;56.43;100999.88;5076226;28;45402;-54
2021/09/04 09:18:09;;;;;;;;;32.00;27.75;;;;;24.54;56.04;100995.22;5058750;27;45574;-52
2021/09/04 09:20:35;;;;;;;;;28.25;27.50;;;;;24.56;56.07;100994.13;5078529;27;47456;-56
2021/09/04 09:23:16;;;;;;;;;30.75;28.25;;;;;24.58;56.27;100996.72;5062283;28;45731;-54
2021/09/04 09:25:43;;;;;;;;;28.75;28.00;;;;;24.60;56.51;101001.03;5056976;28;45595;-53
2021/09/04 09:28:23;;;;;;;;;31.25;29.25;;;;;24.63;56.13;100997.22;5084523;27;45530;-54
2021/09/04 09:30:53;;;;;;;;;32.50;28.25;;;;;24.67;56.23;100993.31;5055180;27;48203;-54
2021/09/04 09:33:20;;;;;;;;;36.50;33.25;;;;;24.75;56.36;101003.56;5082976;27;45295;-54
2021/09/04 09:35:51;;;;;;;;;40.50;35.25;;;;;24.80;56.36;101002.25;5079756;27;45260;-52
2021/09/04 09:38:19;;;;;;;;;42.00;35.75;;;;;24.85;55.93;100999.16;5079134;27;45480;-53
2021/09/04 09:40:44;;;;;;;;;42.25;36.75;;;;;24.89;55.87;101000.66;5079999;28;47242;-53
2021/09/04 09:43:24;;;;;;;;;40.50;34.00;;;;;24.91;55.68;100994.16;5060745;28;45358;-53
2021/09/04 09:45:54;;;;;;;;;37.00;32.50;;;;;24.94;55.90;100993.91;5063015;28;45365;-54
2021/09/04 09:48:25;;;;;;;;;34.00;31.50;;;;;24.99;55.81;100996.25;5080534;28;45601;-55
2021/09/04 09:50:52;;;;;;;;;31.25;28.75;;;;;25.01;55.26;100994.31;5059890;28;46374;-54
2021/09/04 09:53:19;;;;;;;;;38.50;33.00;;;;;25.04;55.40;100987.81;5080109;28;45782;-54
2021/09/04 09:55:47;;;;;;;;;35.00;31.25;;;;;25.08;55.59;100989.28;5085598;27;45448;-51
2021/09/04 09:58:14;;;;;;;;;31.75;28.50;;;;;25.12;55.42;100986.19;5075882;27;45345;-54
2021/09/04 10:00:41;;;;;;;;;37.75;32.25;;;;;25.18;55.68;100985.72;5065900;27;46729;-53
2021/09/04 10:03:08;;;;;;;;;29.50;27.75;;;;;25.24;55.54;100985.22;5078398;27;46209;-52
2021/09/04 10:05:34;;;;;;;;;32.00;29.00;;;;;25.32;55.17;100983.78;5080424;27;45451;-54
2021/09/04 10:08:00;;;;;;;;;32.75;30.50;;;;;25.39;54.98;100976.84;5079462;28;45591;-53
2021/09/04 10:10:38;;;;;;;;;30.25;29.75;;;;;25.44;55.11;100978.22;5079998;27;47462;-54
2021/09/04 10:13:05;;;;;;;;;36.50;31.75;;;;;25.48;54.51;100977.00;5079606;27;45661;-54
2021/09/04 10:15:39;;;;;;;;;35.00;31.50;;;;;25.52;54.91;100978.47;5062053;28;45769;-53
2021/09/04 10:18:08;;;;;;;;;29.25;29.25;;;;;25.57;54.53;100983.56;5079953;27;45682;-53
2021/09/04 10:20:35;;;;;;;;;27.00;25.25;;;;;25.62;54.68;100975.03;5079555;27;47557;-55
2021/09/04 10:23:13;;;;;;;;;27.25;25.75;;;;;25.70;53.87;100978.88;5044481;28;45420;-54
2021/09/04 10:25:39;;;;;;;;;26.75;26.75;;;;;25.75;53.98;100976.66;5065559;27;45586;-52
2021/09/04 10:28:04;;;;;;;;;25.75;25.00;;;;;25.80;54.20;100979.00;5061488;28;45477;-53
2021/09/04 10:30:33;;;;;;;;;27.25;24.00;;;;;25.85;54.25;100979.50;5077376;28;48372;-53
2021/09/04 10:33:07;;;;;;;;;24.50;24.50;;;;;25.89;53.15;100975.53;5077918;28;45334;-52
2021/09/04 10:35:42;;;;;;;;;31.75;29.50;;;;;25.93;53.41;100978.88;5073034;28;45724;-53
2021/09/04 10:38:20;;;;;;;;;24.75;23.75;;;;;25.97;53.88;100973.06;5057423;28;45572;-54
2021/09/04 10:40:45;;;;;;;;;20.25;19.25;;;;;26.02;53.42;100976.25;5079086;28;45619;-54
2021/09/04 10:43:12;;;;;;;;;27.25;24.50;;;;;26.06;52.99;100977.75;5054753;28;45312;-54
2021/09/04 10:45:38;;;;;;;;;24.25;22.75;;;;;26.11;52.95;100970.06;5064901;27;45817;-54
2021/09/04 10:48:17;;;;;;;;;27.50;26.25;;;;;26.16;53.31;100976.97;5081150;27;45411;-53
2021/09/04 10:50:59;;;;;;;;;20.25;20.25;;;;;26.17;52.41;100965.97;5080269;28;45843;-55
2021/09/04 10:53:51;;;;;;;;;24.75;24.75;;;;;26.21;52.61;100970.16;5080055;28;45685;-56
2021/09/04 10:56:30;;;;;;;;;20.50;19.25;;;;;26.23;52.14;100972.75;5063916;28;45670;-53
2021/09/04 10:58:57;;;;;;;;;22.25;21.75;;;;;26.26;52.38;100978.78;5080264;27;45520;-54
2021/09/04 11:01:38;;;;;;;;;25.50;23.00;;;;;26.30;52.16;100966.69;5061803;28;47438;-54
2021/09/04 11:04:04;;;;;;;;;24.75;24.00;;;;;26.33;52.35;100976.44;5066570;28;45805;-56
2021/09/04 11:06:31;;;;;;;;;18.50;17.75;;;;;26.36;52.31;100968.03;5055312;28;45776;-55